sensor_id;sensor_type;location;lat;lon;timestamp;temperature;humidity
27890;DHT22;15238;49.082;9.102;2023-08-06T00:00:54;15.50;99.90
27890;DHT22;15238;49.082;9.102;2023-08-06T00:02:54;15.50;99.90
27890;DHT22;15238;49.082;9.102;2023-08-06T00:04:55;15.50;99.90
27890;DHT22;15238;49.082;9.102;2023-08-06T00:06:55;15.40;99.90
27890;DHT22;15238;49.082;9.102;2023-08-06T00:08:56;15.50;99.90
27890;DHT22;15238;49.082;9.102;2023-08-06T00:10:56;15.40;99.90
27890;DHT22;15238;49.082;9.102;2023-08-06T00:12:57;15.40;99.90
27890;DHT22;15238;49.082;9.102;2023-08-06T00:14:57;15.40;99.90
27890;DHT22;15238;49.082;9.102;2023-08-06T00:16:58;15.40;99.90
27890;DHT22;15238;49.082;9.102;2023-08-06T00:18:58;15.40;99.90
27890;DHT22;15238;49.082;9.102;2023-08-06T00:20:59;15.40;99.90
27890;DHT22;15238;49.082;9.102;2023-08-06T00:23:00;15.30;99.90
27890;DHT22;15238;49.082;9.102;2023-08-06T00:25:00;15.30;99.90
27890;DHT22;15238;49.082;9.102;2023-08-06T00:27:01;15.20;99.90
27890;DHT22;15238;49.082;9.102;2023-08-06T00:29:02;15.20;99.90
27890;DHT22;15238;49.082;9.102;2023-08-06T00:31:02;15.20;99.90
27890;DHT22;15238;49.082;9.102;2023-08-06T00:33:03;15.10;99.90
27890;DHT22;15238;49.082;9.102;2023-08-06T00:35:04;15.10;99.90
27890;DHT22;15238;49.082;9.102;2023-08-06T00:37:04;15.10;99.90
27890;DHT22;15238;49.082;9.102;2023-08-06T00:39:05;15.00;99.90
27890;DHT22;15238;49.082;9.102;2023-08-06T00:41:07;15.00;99.90
27890;DHT22;15238;49.082;9.102;2023-08-06T00:43:07;15.00;99.90
27890;DHT22;15238;49.082;9.102;2023-08-06T00:45:08;15.00;99.90
27890;DHT22;15238;49.082;9.102;2023-08-06T00:47:09;15.00;99.90
27890;DHT22;15238;49.082;9.102;2023-08-06T00:49:10;15.00;99.90
27890;DHT22;15238;49.082;9.102;2023-08-06T00:51:10;15.10;99.90
27890;DHT22;15238;49.082;9.102;2023-08-06T00:53:12;15.10;99.90
27890;DHT22;15238;49.082;9.102;2023-08-06T00:55:12;15.10;99.90
27890;DHT22;15238;49.082;9.102;2023-08-06T00:57:13;15.20;99.90
27890;DHT22;15238;49.082;9.102;2023-08-06T00:59:14;15.20;99.90
27890;DHT22;15238;49.082;9.102;2023-08-06T01:01:15;15.30;99.90
27890;DHT22;15238;49.082;9.102;2023-08-06T01:03:15;15.30;99.90
27890;DHT22;15238;49.082;9.102;2023-08-06T01:05:16;15.30;99.90
27890;DHT22;15238;49.082;9.102;2023-08-06T01:07:21;15.30;99.90
27890;DHT22;15238;49.082;9.102;2023-08-06T01:14:32;15.40;99.90
27890;DHT22;15238;49.082;9.102;2023-08-06T01:16:33;15.40;99.90
27890;DHT22;15238;49.082;9.102;2023-08-06T01:18:35;15.40;99.90
27890;DHT22;15238;49.082;9.102;2023-08-06T01:20:37;15.40;99.90
27890;DHT22;15238;49.082;9.102;2023-08-06T01:22:38;15.40;99.90
27890;DHT22;15238;49.082;9.102;2023-08-06T01:24:38;15.40;99.90
27890;DHT22;15238;49.082;9.102;2023-08-06T01:26:47;15.40;99.90
27890;DHT22;15238;49.082;9.102;2023-08-06T01:29:19;15.30;99.90
27890;DHT22;15238;49.082;9.102;2023-08-06T01:31:34;15.30;99.90
27890;DHT22;15238;49.082;9.102;2023-08-06T01:33:36;15.30;99.90
27890;DHT22;15238;49.082;9.102;2023-08-06T01:35:39;15.40;99.90
27890;DHT22;15238;49.082;9.102;2023-08-06T01:37:40;15.40;99.90
27890;DHT22;15238;49.082;9.102;2023-08-06T01:39:44;15.40;99.90
27890;DHT22;15238;49.082;9.102;2023-08-06T01:41:45;15.40;99.90
27890;DHT22;15238;49.082;9.102;2023-08-06T01:43:45;15.40;99.90
27890;DHT22;15238;49.082;9.102;2023-08-06T01:45:46;15.40;99.90
27890;DHT22;15238;49.082;9.102;2023-08-06T01:47:46;15.40;99.90
27890;DHT22;15238;49.082;9.102;2023-08-06T01:49:47;15.40;99.90
27890;DHT22;15238;49.082;9.102;2023-08-06T01:51:48;15.40;99.90
27890;DHT22;15238;49.082;9.102;2023-08-06T01:53:48;15.40;99.90
27890;DHT22;15238;49.082;9.102;2023-08-06T01:55:49;15.40;99.90
27890;DHT22;15238;49.082;9.102;2023-08-06T01:57:49;15.40;99.90
27890;DHT22;15238;49.082;9.102;2023-08-06T01:59:50;15.50;99.90
27890;DHT22;15238;49.082;9.102;2023-08-06T02:01:50;15.40;99.90
27890;DHT22;15238;49.082;9.102;2023-08-06T02:03:51;15.40;99.90
27890;DHT22;15238;49.082;9.102;2023-08-06T02:05:51;15.40;99.90
27890;DHT22;15238;49.082;9.102;2023-08-06T02:07:52;15.40;99.90
27890;DHT22;15238;49.082;9.102;2023-08-06T02:09:52;15.30;99.90
27890;DHT22;15238;49.082;9.102;2023-08-06T02:11:53;15.20;99.90
27890;DHT22;15238;49.082;9.102;2023-08-06T02:13:53;15.20;99.90
27890;DHT22;15238;49.082;9.102;2023-08-06T02:15:54;15.20;99.90
27890;DHT22;15238;49.082;9.102;2023-08-06T02:17:55;15.10;99.90
27890;DHT22;15238;49.082;9.102;2023-08-06T02:19:55;15.10;99.90
27890;DHT22;15238;49.082;9.102;2023-08-06T02:21:56;15.10;99.90
27890;DHT22;15238;49.082;9.102;2023-08-06T02:23:57;15.10;99.90
27890;DHT22;15238;49.082;9.102;2023-08-06T02:26:01;15.10;99.90
27890;DHT22;15238;49.082;9.102;2023-08-06T02:28:02;15.10;99.90
27890;DHT22;15238;49.082;9.102;2023-08-06T02:30:03;15.10;99.90
27890;DHT22;15238;49.082;9.102;2023-08-06T02:32:05;15.10;99.90
27890;DHT22;15238;49.082;9.102;2023-08-06T02:34:06;15.10;99.90
27890;DHT22;15238;49.082;9.102;2023-08-06T02:36:06;15.10;99.90
27890;DHT22;15238;49.082;9.102;2023-08-06T02:38:06;15.10;99.90
27890;DHT22;15238;49.082;9.102;2023-08-06T02:40:07;15.00;99.90
27890;DHT22;15238;49.082;9.102;2023-08-06T02:42:08;15.00;99.90
27890;DHT22;15238;49.082;9.102;2023-08-06T02:44:09;15.10;99.90
27890;DHT22;15238;49.082;9.102;2023-08-06T02:46:09;15.10;99.90
27890;DHT22;15238;49.082;9.102;2023-08-06T02:48:10;15.10;99.90
27890;DHT22;15238;49.082;9.102;2023-08-06T02:50:10;15.10;99.90
27890;DHT22;15238;49.082;9.102;2023-08-06T02:52:11;15.10;99.90
27890;DHT22;15238;49.082;9.102;2023-08-06T02:54:12;15.00;99.90
27890;DHT22;15238;49.082;9.102;2023-08-06T02:56:12;15.00;99.90
27890;DHT22;15238;49.082;9.102;2023-08-06T02:58:13;15.00;99.90
27890;DHT22;15238;49.082;9.102;2023-08-06T03:00:14;14.90;99.90
27890;DHT22;15238;49.082;9.102;2023-08-06T03:02:14;15.00;99.90
27890;DHT22;15238;49.082;9.102;2023-08-06T03:04:15;15.00;99.90
27890;DHT22;15238;49.082;9.102;2023-08-06T03:06:18;15.00;99.90
27890;DHT22;15238;49.082;9.102;2023-08-06T03:08:18;14.90;99.90
27890;DHT22;15238;49.082;9.102;2023-08-06T03:10:22;14.90;99.90
27890;DHT22;15238;49.082;9.102;2023-08-06T03:12:23;14.90;99.90
27890;DHT22;15238;49.082;9.102;2023-08-06T03:14:23;14.80;99.90
27890;DHT22;15238;49.082;9.102;2023-08-06T03:16:24;14.80;99.90
27890;DHT22;15238;49.082;9.102;2023-08-06T03:18:24;14.80;99.90
27890;DHT22;15238;49.082;9.102;2023-08-06T03:20:26;14.80;99.90
27890;DHT22;15238;49.082;9.102;2023-08-06T03:22:26;14.80;99.90
27890;DHT22;15238;49.082;9.102;2023-08-06T03:24:27;14.90;99.90
27890;DHT22;15238;49.082;9.102;2023-08-06T03:26:27;14.90;99.90
27890;DHT22;15238;49.082;9.102;2023-08-06T03:28:28;14.90;99.90
27890;DHT22;15238;49.082;9.102;2023-08-06T03:30:28;15.00;99.90
27890;DHT22;15238;49.082;9.102;2023-08-06T03:32:29;15.00;99.90
27890;DHT22;15238;49.082;9.102;2023-08-06T03:34:29;14.90;99.90
27890;DHT22;15238;49.082;9.102;2023-08-06T03:36:30;14.90;99.90
27890;DHT22;15238;49.082;9.102;2023-08-06T03:38:31;14.90;99.90
27890;DHT22;15238;49.082;9.102;2023-08-06T03:40:31;15.00;99.90
27890;DHT22;15238;49.082;9.102;2023-08-06T03:42:32;15.00;99.90
27890;DHT22;15238;49.082;9.102;2023-08-06T03:44:32;15.00;99.90
27890;DHT22;15238;49.082;9.102;2023-08-06T03:46:32;14.90;99.90
27890;DHT22;15238;49.082;9.102;2023-08-06T03:48:34;14.90;99.90
27890;DHT22;15238;49.082;9.102;2023-08-06T03:50:35;14.80;99.90
27890;DHT22;15238;49.082;9.102;2023-08-06T03:52:35;14.80;99.90
27890;DHT22;15238;49.082;9.102;2023-08-06T03:54:36;14.80;99.90
27890;DHT22;15238;49.082;9.102;2023-08-06T03:56:36;14.80;99.90
27890;DHT22;15238;49.082;9.102;2023-08-06T03:58:36;14.80;99.90
27890;DHT22;15238;49.082;9.102;2023-08-06T04:00:37;14.80;99.90
27890;DHT22;15238;49.082;9.102;2023-08-06T04:02:37;14.80;99.90
27890;DHT22;15238;49.082;9.102;2023-08-06T04:04:38;14.70;99.90
27890;DHT22;15238;49.082;9.102;2023-08-06T04:06:38;14.70;99.90
27890;DHT22;15238;49.082;9.102;2023-08-06T04:08:39;14.70;99.90
27890;DHT22;15238;49.082;9.102;2023-08-06T04:10:39;14.70;99.90
27890;DHT22;15238;49.082;9.102;2023-08-06T04:12:40;14.70;99.90
27890;DHT22;15238;49.082;9.102;2023-08-06T04:14:40;14.60;99.90
27890;DHT22;15238;49.082;9.102;2023-08-06T04:16:41;14.60;99.90
27890;DHT22;15238;49.082;9.102;2023-08-06T04:18:41;14.60;99.90
27890;DHT22;15238;49.082;9.102;2023-08-06T04:20:48;14.60;99.90
27890;DHT22;15238;49.082;9.102;2023-08-06T04:22:49;14.50;99.90
27890;DHT22;15238;49.082;9.102;2023-08-06T04:24:50;14.60;99.90
27890;DHT22;15238;49.082;9.102;2023-08-06T04:26:50;14.60;99.90
27890;DHT22;15238;49.082;9.102;2023-08-06T04:28:51;14.60;99.90
27890;DHT22;15238;49.082;9.102;2023-08-06T04:30:52;14.60;99.90
27890;DHT22;15238;49.082;9.102;2023-08-06T04:32:53;14.60;99.90
27890;DHT22;15238;49.082;9.102;2023-08-06T04:34:55;14.50;99.90
27890;DHT22;15238;49.082;9.102;2023-08-06T04:36:56;14.50;99.90
27890;DHT22;15238;49.082;9.102;2023-08-06T04:38:57;14.40;99.90
27890;DHT22;15238;49.082;9.102;2023-08-06T04:40:58;14.50;99.90
27890;DHT22;15238;49.082;9.102;2023-08-06T04:42:58;14.50;99.90
27890;DHT22;15238;49.082;9.102;2023-08-06T04:45:00;14.40;99.90
27890;DHT22;15238;49.082;9.102;2023-08-06T04:47:01;14.40;99.90
27890;DHT22;15238;49.082;9.102;2023-08-06T04:49:01;14.40;99.90
27890;DHT22;15238;49.082;9.102;2023-08-06T04:51:02;14.50;99.90
27890;DHT22;15238;49.082;9.102;2023-08-06T04:53:02;14.60;99.90
27890;DHT22;15238;49.082;9.102;2023-08-06T04:55:03;14.60;99.90
27890;DHT22;15238;49.082;9.102;2023-08-06T04:57:06;14.60;99.90
27890;DHT22;15238;49.082;9.102;2023-08-06T04:59:06;14.70;99.90
27890;DHT22;15238;49.082;9.102;2023-08-06T05:01:07;14.80;99.90
27890;DHT22;15238;49.082;9.102;2023-08-06T05:03:07;14.80;99.90
27890;DHT22;15238;49.082;9.102;2023-08-06T05:05:08;14.70;99.90
27890;DHT22;15238;49.082;9.102;2023-08-06T05:07:10;14.70;99.90
27890;DHT22;15238;49.082;9.102;2023-08-06T05:09:10;14.70;99.90
27890;DHT22;15238;49.082;9.102;2023-08-06T05:11:11;14.70;99.90
27890;DHT22;15238;49.082;9.102;2023-08-06T05:13:11;14.70;99.90
27890;DHT22;15238;49.082;9.102;2023-08-06T05:15:12;14.70;99.90
27890;DHT22;15238;49.082;9.102;2023-08-06T05:17:13;14.60;99.90
27890;DHT22;15238;49.082;9.102;2023-08-06T05:19:13;14.60;99.90
27890;DHT22;15238;49.082;9.102;2023-08-06T05:21:13;14.60;99.90
27890;DHT22;15238;49.082;9.102;2023-08-06T05:23:14;14.60;99.90
27890;DHT22;15238;49.082;9.102;2023-08-06T05:25:14;14.60;99.90
27890;DHT22;15238;49.082;9.102;2023-08-06T05:27:15;14.60;99.90
27890;DHT22;15238;49.082;9.102;2023-08-06T05:29:16;14.50;99.90
27890;DHT22;15238;49.082;9.102;2023-08-06T05:31:16;14.60;99.90
27890;DHT22;15238;49.082;9.102;2023-08-06T05:33:17;14.60;99.90
27890;DHT22;15238;49.082;9.102;2023-08-06T05:35:17;14.60;99.90
27890;DHT22;15238;49.082;9.102;2023-08-06T05:37:18;14.60;99.90
27890;DHT22;15238;49.082;9.102;2023-08-06T05:39:18;14.50;99.90
27890;DHT22;15238;49.082;9.102;2023-08-06T05:41:19;14.60;99.90
27890;DHT22;15238;49.082;9.102;2023-08-06T05:43:19;14.60;99.90
27890;DHT22;15238;49.082;9.102;2023-08-06T05:45:20;14.60;99.90
27890;DHT22;15238;49.082;9.102;2023-08-06T05:47:20;14.70;99.90
27890;DHT22;15238;49.082;9.102;2023-08-06T05:49:21;14.70;99.90
27890;DHT22;15238;49.082;9.102;2023-08-06T05:51:22;14.70;99.90
27890;DHT22;15238;49.082;9.102;2023-08-06T05:53:22;14.70;99.90
27890;DHT22;15238;49.082;9.102;2023-08-06T05:55:23;14.70;99.90
27890;DHT22;15238;49.082;9.102;2023-08-06T05:57:23;14.70;99.90
27890;DHT22;15238;49.082;9.102;2023-08-06T05:59:24;14.70;99.90
27890;DHT22;15238;49.082;9.102;2023-08-06T06:01:24;14.80;99.90
27890;DHT22;15238;49.082;9.102;2023-08-06T06:03:25;14.80;99.90
27890;DHT22;15238;49.082;9.102;2023-08-06T06:05:25;14.80;99.90
27890;DHT22;15238;49.082;9.102;2023-08-06T06:07:26;14.80;99.90
27890;DHT22;15238;49.082;9.102;2023-08-06T06:09:26;14.80;99.90
27890;DHT22;15238;49.082;9.102;2023-08-06T06:11:27;14.80;99.90
27890;DHT22;15238;49.082;9.102;2023-08-06T06:13:27;14.90;99.90
27890;DHT22;15238;49.082;9.102;2023-08-06T06:15:28;14.90;99.90
27890;DHT22;15238;49.082;9.102;2023-08-06T06:17:29;15.00;99.90
27890;DHT22;15238;49.082;9.102;2023-08-06T06:19:29;15.00;99.90
27890;DHT22;15238;49.082;9.102;2023-08-06T06:21:30;15.10;99.90
27890;DHT22;15238;49.082;9.102;2023-08-06T06:23:30;15.10;99.90
27890;DHT22;15238;49.082;9.102;2023-08-06T06:25:30;15.20;99.90
27890;DHT22;15238;49.082;9.102;2023-08-06T06:27:31;15.30;99.90
27890;DHT22;15238;49.082;9.102;2023-08-06T06:29:32;15.40;99.90
27890;DHT22;15238;49.082;9.102;2023-08-06T06:31:32;15.40;99.90
27890;DHT22;15238;49.082;9.102;2023-08-06T06:33:33;15.50;99.90
27890;DHT22;15238;49.082;9.102;2023-08-06T06:35:33;15.40;99.90
27890;DHT22;15238;49.082;9.102;2023-08-06T06:37:34;15.40;99.90
27890;DHT22;15238;49.082;9.102;2023-08-06T06:39:34;15.40;99.90
27890;DHT22;15238;49.082;9.102;2023-08-06T06:41:35;15.30;99.90
27890;DHT22;15238;49.082;9.102;2023-08-06T06:43:36;15.20;99.90
27890;DHT22;15238;49.082;9.102;2023-08-06T06:45:38;15.10;99.90
27890;DHT22;15238;49.082;9.102;2023-08-06T06:47:38;15.00;99.90
27890;DHT22;15238;49.082;9.102;2023-08-06T06:49:39;15.00;99.90
27890;DHT22;15238;49.082;9.102;2023-08-06T06:51:39;15.00;99.90
27890;DHT22;15238;49.082;9.102;2023-08-06T06:53:40;15.00;99.90
27890;DHT22;15238;49.082;9.102;2023-08-06T06:55:40;15.00;99.90
27890;DHT22;15238;49.082;9.102;2023-08-06T06:57:41;15.00;99.90
27890;DHT22;15238;49.082;9.102;2023-08-06T06:59:41;15.00;99.90
27890;DHT22;15238;49.082;9.102;2023-08-06T07:01:42;14.90;99.90
27890;DHT22;15238;49.082;9.102;2023-08-06T07:03:45;14.90;99.90
27890;DHT22;15238;49.082;9.102;2023-08-06T07:05:46;14.90;99.90
27890;DHT22;15238;49.082;9.102;2023-08-06T07:07:46;15.00;99.90
27890;DHT22;15238;49.082;9.102;2023-08-06T07:09:47;15.00;99.90
27890;DHT22;15238;49.082;9.102;2023-08-06T07:11:47;15.00;99.90
27890;DHT22;15238;49.082;9.102;2023-08-06T07:13:50;15.00;99.90
27890;DHT22;15238;49.082;9.102;2023-08-06T07:15:56;15.00;99.90
27890;DHT22;15238;49.082;9.102;2023-08-06T07:17:56;15.00;99.90
27890;DHT22;15238;49.082;9.102;2023-08-06T07:19:57;15.00;99.90
27890;DHT22;15238;49.082;9.102;2023-08-06T07:21:57;14.90;99.90
27890;DHT22;15238;49.082;9.102;2023-08-06T07:23:58;14.90;99.90
27890;DHT22;15238;49.082;9.102;2023-08-06T07:25:59;14.90;99.90
27890;DHT22;15238;49.082;9.102;2023-08-06T07:28:00;14.90;99.90
27890;DHT22;15238;49.082;9.102;2023-08-06T07:30:03;15.00;99.90
27890;DHT22;15238;49.082;9.102;2023-08-06T07:32:03;14.90;99.90
27890;DHT22;15238;49.082;9.102;2023-08-06T07:34:04;15.00;99.90
27890;DHT22;15238;49.082;9.102;2023-08-06T07:36:12;15.10;99.90
27890;DHT22;15238;49.082;9.102;2023-08-06T07:38:13;15.10;99.90
27890;DHT22;15238;49.082;9.102;2023-08-06T07:40:13;15.10;99.90
27890;DHT22;15238;49.082;9.102;2023-08-06T07:42:14;15.20;99.90
27890;DHT22;15238;49.082;9.102;2023-08-06T07:44:14;15.20;99.90
27890;DHT22;15238;49.082;9.102;2023-08-06T07:46:15;15.20;99.90
27890;DHT22;15238;49.082;9.102;2023-08-06T07:48:15;15.30;99.90
27890;DHT22;15238;49.082;9.102;2023-08-06T07:50:16;15.20;99.90
27890;DHT22;15238;49.082;9.102;2023-08-06T07:52:16;15.30;99.90
27890;DHT22;15238;49.082;9.102;2023-08-06T07:54:17;15.50;99.90
27890;DHT22;15238;49.082;9.102;2023-08-06T07:56:17;15.50;99.90
27890;DHT22;15238;49.082;9.102;2023-08-06T07:58:19;15.50;99.90
27890;DHT22;15238;49.082;9.102;2023-08-06T08:00:19;15.50;99.90
27890;DHT22;15238;49.082;9.102;2023-08-06T08:02:20;15.60;99.90
27890;DHT22;15238;49.082;9.102;2023-08-06T08:04:20;15.70;99.90
27890;DHT22;15238;49.082;9.102;2023-08-06T08:06:21;15.70;99.90
27890;DHT22;15238;49.082;9.102;2023-08-06T08:08:22;15.70;99.90
27890;DHT22;15238;49.082;9.102;2023-08-06T08:10:22;15.60;99.90
27890;DHT22;15238;49.082;9.102;2023-08-06T08:12:23;15.60;99.90
27890;DHT22;15238;49.082;9.102;2023-08-06T08:14:23;15.50;99.90
27890;DHT22;15238;49.082;9.102;2023-08-06T08:16:24;15.40;99.90
27890;DHT22;15238;49.082;9.102;2023-08-06T08:18:24;15.40;99.90
27890;DHT22;15238;49.082;9.102;2023-08-06T08:20:26;15.40;99.90
27890;DHT22;15238;49.082;9.102;2023-08-06T08:22:31;15.40;99.90
27890;DHT22;15238;49.082;9.102;2023-08-06T08:24:32;15.40;99.90
27890;DHT22;15238;49.082;9.102;2023-08-06T08:26:32;15.40;99.90
27890;DHT22;15238;49.082;9.102;2023-08-06T08:28:33;15.50;99.90
27890;DHT22;15238;49.082;9.102;2023-08-06T08:30:33;15.60;99.90
27890;DHT22;15238;49.082;9.102;2023-08-06T08:32:34;15.60;99.90
27890;DHT22;15238;49.082;9.102;2023-08-06T08:34:34;15.70;99.90
27890;DHT22;15238;49.082;9.102;2023-08-06T08:36:35;15.80;99.90
27890;DHT22;15238;49.082;9.102;2023-08-06T08:38:35;15.90;99.90
27890;DHT22;15238;49.082;9.102;2023-08-06T08:40:46;15.90;99.90
27890;DHT22;15238;49.082;9.102;2023-08-06T08:42:50;16.00;99.90
27890;DHT22;15238;49.082;9.102;2023-08-06T08:44:52;16.10;99.90
27890;DHT22;15238;49.082;9.102;2023-08-06T08:46:53;16.30;99.90
27890;DHT22;15238;49.082;9.102;2023-08-06T08:48:54;16.30;99.90
27890;DHT22;15238;49.082;9.102;2023-08-06T08:50:56;16.30;99.90
27890;DHT22;15238;49.082;9.102;2023-08-06T08:52:57;16.30;99.90
27890;DHT22;15238;49.082;9.102;2023-08-06T08:54:58;16.30;99.90
27890;DHT22;15238;49.082;9.102;2023-08-06T08:57:00;16.20;99.90
27890;DHT22;15238;49.082;9.102;2023-08-06T08:59:00;16.30;99.90
27890;DHT22;15238;49.082;9.102;2023-08-06T09:01:01;16.30;99.90
27890;DHT22;15238;49.082;9.102;2023-08-06T09:03:05;16.40;99.90
27890;DHT22;15238;49.082;9.102;2023-08-06T09:05:07;16.30;99.90
27890;DHT22;15238;49.082;9.102;2023-08-06T09:07:09;16.40;99.90
27890;DHT22;15238;49.082;9.102;2023-08-06T09:09:15;16.30;99.90
27890;DHT22;15238;49.082;9.102;2023-08-06T09:11:17;16.30;99.90
27890;DHT22;15238;49.082;9.102;2023-08-06T09:13:20;16.40;99.90
27890;DHT22;15238;49.082;9.102;2023-08-06T09:15:24;16.40;99.90
27890;DHT22;15238;49.082;9.102;2023-08-06T09:17:25;16.30;99.90
27890;DHT22;15238;49.082;9.102;2023-08-06T09:19:27;16.20;99.90
27890;DHT22;15238;49.082;9.102;2023-08-06T09:21:28;16.00;99.90
27890;DHT22;15238;49.082;9.102;2023-08-06T09:23:30;16.00;99.90
27890;DHT22;15238;49.082;9.102;2023-08-06T09:25:31;16.00;99.90
27890;DHT22;15238;49.082;9.102;2023-08-06T09:27:32;16.00;99.90
27890;DHT22;15238;49.082;9.102;2023-08-06T09:29:32;15.90;99.90
27890;DHT22;15238;49.082;9.102;2023-08-06T09:31:42;15.90;99.90
27890;DHT22;15238;49.082;9.102;2023-08-06T09:33:43;15.90;99.90
27890;DHT22;15238;49.082;9.102;2023-08-06T09:35:48;15.80;99.90
27890;DHT22;15238;49.082;9.102;2023-08-06T09:37:48;16.00;99.90
27890;DHT22;15238;49.082;9.102;2023-08-06T09:39:49;16.20;99.90
27890;DHT22;15238;49.082;9.102;2023-08-06T09:41:56;16.40;99.90
27890;DHT22;15238;49.082;9.102;2023-08-06T09:43:56;16.70;99.90
27890;DHT22;15238;49.082;9.102;2023-08-06T09:45:57;16.80;99.90
27890;DHT22;15238;49.082;9.102;2023-08-06T09:47:58;16.60;99.90
27890;DHT22;15238;49.082;9.102;2023-08-06T09:49:59;16.60;99.90
27890;DHT22;15238;49.082;9.102;2023-08-06T09:52:00;16.50;99.90
27890;DHT22;15238;49.082;9.102;2023-08-06T09:54:01;16.50;99.90
27890;DHT22;15238;49.082;9.102;2023-08-06T09:56:01;16.40;99.90
27890;DHT22;15238;49.082;9.102;2023-08-06T09:58:02;16.30;99.90
27890;DHT22;15238;49.082;9.102;2023-08-06T10:00:03;16.30;99.90
27890;DHT22;15238;49.082;9.102;2023-08-06T10:02:12;16.40;99.90
27890;DHT22;15238;49.082;9.102;2023-08-06T10:04:14;16.50;99.90
27890;DHT22;15238;49.082;9.102;2023-08-06T10:06:16;16.60;99.90
27890;DHT22;15238;49.082;9.102;2023-08-06T10:08:17;16.70;99.90
27890;DHT22;15238;49.082;9.102;2023-08-06T10:10:17;16.80;99.90
27890;DHT22;15238;49.082;9.102;2023-08-06T10:12:20;16.70;99.90
27890;DHT22;15238;49.082;9.102;2023-08-06T10:14:25;16.70;99.90
27890;DHT22;15238;49.082;9.102;2023-08-06T10:16:27;16.60;99.90
27890;DHT22;15238;49.082;9.102;2023-08-06T10:18:29;16.60;99.90
27890;DHT22;15238;49.082;9.102;2023-08-06T10:20:36;16.40;99.90
27890;DHT22;15238;49.082;9.102;2023-08-06T10:22:36;16.30;99.90
27890;DHT22;15238;49.082;9.102;2023-08-06T10:24:50;16.40;99.90
27890;DHT22;15238;49.082;9.102;2023-08-06T10:26:50;16.40;99.90
27890;DHT22;15238;49.082;9.102;2023-08-06T10:28:56;16.30;99.90
27890;DHT22;15238;49.082;9.102;2023-08-06T10:30:57;16.20;99.90
27890;DHT22;15238;49.082;9.102;2023-08-06T10:33:04;16.10;99.90
27890;DHT22;15238;49.082;9.102;2023-08-06T10:35:05;16.00;99.90
27890;DHT22;15238;49.082;9.102;2023-08-06T10:37:05;15.90;99.90
27890;DHT22;15238;49.082;9.102;2023-08-06T10:39:13;15.60;99.90
27890;DHT22;15238;49.082;9.102;2023-08-06T10:41:23;15.50;99.90
27890;DHT22;15238;49.082;9.102;2023-08-06T10:45:29;15.70;99.90
27890;DHT22;15238;49.082;9.102;2023-08-06T10:47:38;15.50;99.90
27890;DHT22;15238;49.082;9.102;2023-08-06T10:49:39;15.50;99.90
27890;DHT22;15238;49.082;9.102;2023-08-06T10:51:40;15.60;99.90
27890;DHT22;15238;49.082;9.102;2023-08-06T10:53:43;15.60;99.90
27890;DHT22;15238;49.082;9.102;2023-08-06T10:55:43;15.70;99.90
27890;DHT22;15238;49.082;9.102;2023-08-06T10:57:44;15.60;99.90
27890;DHT22;15238;49.082;9.102;2023-08-06T10:59:44;15.70;99.90
27890;DHT22;15238;49.082;9.102;2023-08-06T11:01:45;15.80;99.90
27890;DHT22;15238;49.082;9.102;2023-08-06T11:03:47;15.90;99.90
27890;DHT22;15238;49.082;9.102;2023-08-06T11:05:49;15.90;99.90
27890;DHT22;15238;49.082;9.102;2023-08-06T11:07:50;15.90;99.90
27890;DHT22;15238;49.082;9.102;2023-08-06T11:09:51;15.90;99.90
27890;DHT22;15238;49.082;9.102;2023-08-06T11:11:53;16.00;99.90
27890;DHT22;15238;49.082;9.102;2023-08-06T11:13:53;15.90;99.90
27890;DHT22;15238;49.082;9.102;2023-08-06T11:15:54;15.80;99.90
27890;DHT22;15238;49.082;9.102;2023-08-06T11:17:55;15.70;99.90
27890;DHT22;15238;49.082;9.102;2023-08-06T11:19:59;15.70;99.90
27890;DHT22;15238;49.082;9.102;2023-08-06T11:22:00;15.60;99.90
27890;DHT22;15238;49.082;9.102;2023-08-06T11:24:01;15.50;99.90
27890;DHT22;15238;49.082;9.102;2023-08-06T11:26:02;15.60;99.90
27890;DHT22;15238;49.082;9.102;2023-08-06T11:28:03;15.60;99.90
27890;DHT22;15238;49.082;9.102;2023-08-06T11:30:04;15.50;99.90
27890;DHT22;15238;49.082;9.102;2023-08-06T11:32:06;15.60;99.90
27890;DHT22;15238;49.082;9.102;2023-08-06T11:34:06;15.50;99.90
27890;DHT22;15238;49.082;9.102;2023-08-06T11:36:07;15.50;99.90
27890;DHT22;15238;49.082;9.102;2023-08-06T11:38:07;15.50;99.90
27890;DHT22;15238;49.082;9.102;2023-08-06T11:40:09;15.60;99.90
27890;DHT22;15238;49.082;9.102;2023-08-06T11:42:12;15.60;99.90
27890;DHT22;15238;49.082;9.102;2023-08-06T11:44:12;15.60;99.90
27890;DHT22;15238;49.082;9.102;2023-08-06T11:46:14;15.40;99.90
27890;DHT22;15238;49.082;9.102;2023-08-06T11:48:14;15.30;99.90
27890;DHT22;15238;49.082;9.102;2023-08-06T11:50:27;15.30;99.90
27890;DHT22;15238;49.082;9.102;2023-08-06T11:52:28;15.20;99.90
27890;DHT22;15238;49.082;9.102;2023-08-06T11:54:32;15.10;99.90
27890;DHT22;15238;49.082;9.102;2023-08-06T11:56:37;15.10;99.90
27890;DHT22;15238;49.082;9.102;2023-08-06T11:58:37;15.10;99.90
27890;DHT22;15238;49.082;9.102;2023-08-06T12:00:38;14.90;99.90
27890;DHT22;15238;49.082;9.102;2023-08-06T12:02:40;14.80;99.90
27890;DHT22;15238;49.082;9.102;2023-08-06T12:04:58;14.70;99.90
27890;DHT22;15238;49.082;9.102;2023-08-06T12:07:06;14.60;99.90
27890;DHT22;15238;49.082;9.102;2023-08-06T12:09:10;14.50;99.90
27890;DHT22;15238;49.082;9.102;2023-08-06T12:11:11;14.40;99.90
27890;DHT22;15238;49.082;9.102;2023-08-06T12:13:11;14.40;99.90
27890;DHT22;15238;49.082;9.102;2023-08-06T12:15:13;14.40;99.90
27890;DHT22;15238;49.082;9.102;2023-08-06T12:17:14;14.40;99.90
27890;DHT22;15238;49.082;9.102;2023-08-06T12:19:14;14.30;99.90
27890;DHT22;15238;49.082;9.102;2023-08-06T12:21:15;14.40;99.90
27890;DHT22;15238;49.082;9.102;2023-08-06T12:23:15;14.40;99.90
27890;DHT22;15238;49.082;9.102;2023-08-06T12:25:16;14.50;99.90
27890;DHT22;15238;49.082;9.102;2023-08-06T12:27:17;14.40;99.90
27890;DHT22;15238;49.082;9.102;2023-08-06T12:29:17;14.40;99.90
27890;DHT22;15238;49.082;9.102;2023-08-06T12:31:18;14.50;99.90
27890;DHT22;15238;49.082;9.102;2023-08-06T12:33:19;14.50;99.90
27890;DHT22;15238;49.082;9.102;2023-08-06T12:35:19;14.50;99.90
27890;DHT22;15238;49.082;9.102;2023-08-06T12:37:21;14.40;99.90
27890;DHT22;15238;49.082;9.102;2023-08-06T12:39:21;14.40;99.90
27890;DHT22;15238;49.082;9.102;2023-08-06T12:41:22;14.50;99.90
27890;DHT22;15238;49.082;9.102;2023-08-06T12:43:22;14.40;99.90
27890;DHT22;15238;49.082;9.102;2023-08-06T12:45:23;14.50;99.90
27890;DHT22;15238;49.082;9.102;2023-08-06T12:47:23;14.50;99.90
27890;DHT22;15238;49.082;9.102;2023-08-06T12:49:25;14.50;99.90
27890;DHT22;15238;49.082;9.102;2023-08-06T12:51:26;14.50;99.90
27890;DHT22;15238;49.082;9.102;2023-08-06T12:53:26;14.50;99.90